createdAt,value
2022-11-04T00:00:00.661Z,99715.47
2022-11-04T00:02:27.000Z,99709.44
2022-11-04T00:04:53.347Z,99707.75
2022-11-04T00:07:38.139Z,99715.56
2022-11-04T00:10:04.826Z,99718.16
2022-11-04T00:12:31.104Z,99710.34
2022-11-04T00:15:17.344Z,99703.31
2022-11-04T00:17:43.617Z,99694.09
2022-11-04T00:20:29.268Z,99695.81
2022-11-04T00:23:14.106Z,99687.13
2022-11-04T00:25:59.029Z,99699.44
2022-11-04T00:28:43.196Z,99702.19
2022-11-04T00:31:28.869Z,99710.66
2022-11-04T00:33:57.551Z,99699.69
2022-11-04T00:36:25.007Z,99696.97
2022-11-04T00:38:51.656Z,99691.72
2022-11-04T00:41:27.907Z,99685.09
2022-11-04T00:43:57.648Z,99685.09
2022-11-04T00:46:24.273Z,99672.22
2022-11-04T00:48:50.561Z,99663.63
2022-11-04T00:51:16.830Z,99659.31
2022-11-04T00:53:43.129Z,99706.81
2022-11-04T00:56:09.685Z,99701.63
2022-11-04T00:58:35.969Z,99699.09
2022-11-04T01:01:07.797Z,99686.13
2022-11-04T01:03:34.128Z,99670.53
2022-11-04T01:06:00.399Z,99673.84
2022-11-04T01:08:26.782Z,99672.91
2022-11-04T01:10:53.094Z,99672.13
2022-11-04T01:13:19.393Z,99667.72
2022-11-04T01:15:45.706Z,99660.59
2022-11-04T01:18:12.414Z,99662.34
2022-11-04T01:20:38.705Z,99663.19
2022-11-04T01:23:04.981Z,99661.59
2022-11-04T01:25:31.261Z,99649.53
2022-11-04T01:27:57.559Z,99644.06
2022-11-04T01:30:23.834Z,99642.38
2022-11-04T01:32:50.114Z,99643.13
2022-11-04T01:35:16.445Z,99630.03
2022-11-04T01:37:42.707Z,99634.41
2022-11-04T01:40:09.822Z,99637.94
2022-11-04T01:42:36.080Z,99632.16
2022-11-04T01:45:02.447Z,99637.28
2022-11-04T01:48:04.162Z,99637.09
2022-11-04T01:50:32.599Z,99640.59
2022-11-04T01:53:09.366Z,99638.88
2022-11-04T01:55:43.224Z,99634.53
2022-11-04T01:58:14.900Z,99635.13
2022-11-04T02:00:43.035Z,99632.44
2022-11-04T02:03:20.414Z,99630.78
2022-11-04T02:05:48.117Z,99637.44
2022-11-04T02:08:17.594Z,99624.53
2022-11-04T02:10:50.298Z,99633.13
2022-11-04T02:13:16.705Z,99626.84
2022-11-04T02:16:02.465Z,99623.22
2022-11-04T02:18:43.200Z,99624.97
2022-11-04T02:21:55.435Z,99603.97
2022-11-04T02:24:37.080Z,99608.28
2022-11-04T02:27:20.660Z,99613.25
2022-11-04T02:30:08.538Z,99608.66
2022-11-04T02:32:42.388Z,99610.66
2022-11-04T02:35:23.573Z,99616.50
2022-11-04T02:40:33.684Z,99625.13
2022-11-04T02:43:08.013Z,99628.63
2022-11-04T02:46:32.262Z,99625.63
2022-11-04T02:49:07.410Z,99624.56
2022-11-04T02:51:43.348Z,99610.84
2022-11-04T02:54:26.840Z,99620.31
2022-11-04T02:56:56.497Z,99615.97
2022-11-04T02:59:30.972Z,99625.56
2022-11-04T03:02:01.080Z,99622.84
2022-11-04T03:04:33.038Z,99632.38
2022-11-04T03:07:01.980Z,99634.19
2022-11-04T03:09:29.872Z,99641.13
2022-11-04T03:12:01.786Z,99639.09
2022-11-04T03:14:37.245Z,99645.34
2022-11-04T03:17:08.843Z,99643.69
2022-11-04T03:19:49.609Z,99649.59
2022-11-04T03:22:22.592Z,99659.00
2022-11-04T03:24:49.876Z,99659.94
2022-11-04T03:27:31.225Z,99656.50
2022-11-04T03:30:04.568Z,99656.50
2022-11-04T03:32:52.698Z,99654.81
2022-11-04T03:35:20.046Z,99648.75
2022-11-04T03:37:48.457Z,99642.78
2022-11-04T03:40:16.856Z,99645.19
2022-11-04T03:42:53.918Z,99648.84
2022-11-04T03:45:20.197Z,99654.19
2022-11-04T03:47:46.682Z,99663.50
2022-11-04T03:50:19.710Z,99666.06
2022-11-04T03:52:46.086Z,99661.75
2022-11-04T03:55:13.039Z,99661.03
2022-11-04T03:57:56.362Z,99660.19
2022-11-04T04:00:23.954Z,99662.84
2022-11-04T04:02:57.656Z,99651.47
2022-11-04T04:05:27.143Z,99643.69
2022-11-04T04:08:43.700Z,99641.03
2022-11-04T04:11:28.961Z,99646.19
2022-11-04T04:14:39.439Z,99648.03
2022-11-04T04:17:11.940Z,99641.16
2022-11-04T04:19:40.053Z,99655.91
2022-11-04T04:22:23.923Z,99662.81
2022-11-04T04:25:12.290Z,99665.34
2022-11-04T04:27:39.731Z,99663.50
2022-11-04T04:30:09.345Z,99680.00
2022-11-04T04:32:43.597Z,99682.63
2022-11-04T04:35:29.563Z,99683.72
2022-11-04T04:38:20.317Z,99688.94
2022-11-04T04:41:30.066Z,99696.63
2022-11-04T04:44:16.786Z,99702.84
2022-11-04T04:46:45.294Z,99713.06
2022-11-04T04:49:11.661Z,99706.13
2022-11-04T04:51:42.845Z,99709.75
2022-11-04T04:54:09.161Z,99711.34
2022-11-04T04:56:35.524Z,99720.78
2022-11-04T04:59:01.799Z,99723.41
2022-11-04T05:01:28.584Z,99728.63
2022-11-04T05:03:55.038Z,99732.81
2022-11-04T05:06:21.314Z,99745.94
2022-11-04T05:08:47.615Z,99746.03
2022-11-04T05:11:14.059Z,99746.09
2022-11-04T05:13:40.342Z,99744.34
2022-11-04T05:16:09.588Z,99764.97
2022-11-04T05:18:36.787Z,99761.63
2022-11-04T05:21:08.477Z,99762.53
2022-11-04T05:23:35.416Z,99767.63
2022-11-04T05:26:01.987Z,99771.09
2022-11-04T05:28:28.651Z,99772.59
2022-11-04T05:30:55.073Z,99776.09
2022-11-04T05:33:21.384Z,99775.34
2022-11-04T05:35:47.830Z,99781.34
2022-11-04T05:38:14.243Z,99778.72
2022-11-04T05:40:40.551Z,99778.63
2022-11-04T05:43:08.038Z,99782.13
2022-11-04T05:45:34.632Z,99782.88
2022-11-04T05:48:02.645Z,99791.56
2022-11-04T05:50:30.329Z,99786.44
2022-11-04T05:52:58.293Z,99799.56
2022-11-04T05:55:24.986Z,99794.41
2022-11-04T05:57:51.367Z,99802.97
2022-11-04T06:00:17.975Z,99794.25
2022-11-04T06:02:44.379Z,99792.56
2022-11-04T06:05:11.078Z,99798.59
2022-11-04T06:07:37.621Z,99802.13
2022-11-04T06:10:04.374Z,99813.09
2022-11-04T06:12:30.829Z,99813.28
2022-11-04T06:14:57.334Z,99826.28
2022-11-04T06:17:24.183Z,99816.13
2022-11-04T06:19:50.504Z,99817.78
2022-11-04T06:22:19.086Z,99814.41
2022-11-04T06:24:45.868Z,99806.69
2022-11-04T06:27:12.497Z,99807.47
2022-11-04T06:29:42.294Z,99814.41
2022-11-04T06:32:10.716Z,99822.91
2022-11-04T06:34:37.194Z,99817.66
2022-11-04T06:37:04.254Z,99829.72
2022-11-04T06:39:30.580Z,99830.69
2022-11-04T06:41:59.667Z,99839.31
2022-11-04T06:44:28.712Z,99842.00
2022-11-04T06:46:55.022Z,99845.44
2022-11-04T06:49:22.973Z,99853.09
2022-11-04T06:51:49.994Z,99861.00
2022-11-04T06:54:17.265Z,99844.44
2022-11-04T06:56:44.514Z,99847.97
2022-11-04T06:59:16.491Z,99844.53
2022-11-04T07:01:43.171Z,99858.28
2022-11-04T07:04:09.584Z,99858.28
2022-11-04T07:06:38.384Z,99857.66
2022-11-04T07:09:07.476Z,99856.47
2022-11-04T07:11:33.763Z,99866.16
2022-11-04T07:14:00.045Z,99863.28
2022-11-04T07:16:26.453Z,99862.81
2022-11-04T07:18:54.532Z,99868.53
2022-11-04T07:21:20.968Z,99881.63
2022-11-04T07:23:47.269Z,99884.94
2022-11-04T07:26:14.194Z,99887.56
2022-11-04T07:28:40.496Z,99893.50
2022-11-04T07:31:08.468Z,99907.41
2022-11-04T07:33:34.756Z,99906.53
2022-11-04T07:36:05.600Z,99911.88
2022-11-04T07:38:31.898Z,99909.72
2022-11-04T07:40:58.946Z,99916.03
2022-11-04T07:43:25.306Z,99925.91
2022-11-04T07:46:03.062Z,99923.56
2022-11-04T07:48:29.627Z,99926.91
2022-11-04T07:50:57.983Z,99938.84
2022-11-04T07:53:24.293Z,99927.63
2022-11-04T07:55:51.047Z,99938.75
2022-11-04T07:58:21.930Z,99912.63
2022-11-04T08:00:48.780Z,99902.00
2022-11-04T08:03:15.392Z,99906.81
2022-11-04T08:05:41.817Z,99916.16
2022-11-04T08:08:08.141Z,99916.34
2022-11-04T08:10:34.787Z,99936.19
2022-11-04T08:13:01.129Z,99935.25
2022-11-04T08:15:29.033Z,99936.31
2022-11-04T08:17:55.300Z,99945.72
2022-11-04T08:20:21.722Z,99935.25
2022-11-04T08:22:48.298Z,99942.72
2022-11-04T08:25:14.656Z,99950.66
2022-11-04T08:27:41.033Z,99943.88
2022-11-04T08:30:08.044Z,99945.53
2022-11-04T08:32:35.259Z,99946.56
2022-11-04T08:35:01.583Z,99942.13
2022-11-04T08:37:27.895Z,99945.59
2022-11-04T08:39:54.165Z,99949.88
2022-11-04T08:42:20.506Z,99947.69
2022-11-04T08:44:51.447Z,99957.94
2022-11-04T08:47:18.329Z,99961.22
2022-11-04T08:49:44.602Z,99960.50
2022-11-04T08:52:10.877Z,99957.78
2022-11-04T08:54:37.201Z,99975.72
2022-11-04T08:57:03.703Z,99971.31
2022-11-04T08:59:30.040Z,99972.22
2022-11-04T09:01:56.401Z,99972.22
2022-11-04T09:04:23.111Z,99967.81
2022-11-04T09:06:50.948Z,99976.41
2022-11-04T09:09:19.689Z,99974.34
2022-11-04T09:11:46.569Z,99976.97
2022-11-04T09:14:13.969Z,99983.97
2022-11-04T09:16:41.534Z,99989.84
2022-11-04T09:19:08.488Z,99989.06
2022-11-04T09:21:34.828Z,99990.56
2022-11-04T09:24:01.166Z,99986.41
2022-11-04T09:26:28.074Z,99995.91
2022-11-04T09:28:58.272Z,99988.06
2022-11-04T09:31:26.642Z,99987.28
2022-11-04T09:33:55.253Z,99999.41
2022-11-04T09:36:21.985Z,100005.00
2022-11-04T09:38:48.268Z,100007.94
2022-11-04T09:41:57.534Z,100008.59
2022-11-04T09:44:28.289Z,100000.91
2022-11-04T09:47:00.632Z,100004.34
2022-11-04T09:49:32.255Z,100000.63
2022-11-04T09:52:02.671Z,100000.84
2022-11-04T09:54:46.856Z,100003.47
2022-11-04T09:57:18.069Z,100007.69
2022-11-04T09:59:45.640Z,100017.72
2022-11-04T10:02:39.899Z,100023.47
2022-11-04T10:05:28.531Z,100017.97
2022-11-04T10:08:04.113Z,100021.59
2022-11-04T10:10:36.533Z,100022.94
2022-11-04T10:13:17.614Z,100028.72
2022-11-04T10:15:46.947Z,100025.91
2022-11-04T10:18:34.210Z,100016.28
2022-11-04T10:21:25.433Z,100020.75
2022-11-04T10:24:00.732Z,100019.50
2022-11-04T10:26:47.896Z,100009.69
2022-11-04T10:29:30.948Z,100009.50
2022-11-04T10:31:59.788Z,100011.97
2022-11-04T10:34:37.754Z,100006.88
2022-11-04T10:37:09.027Z,100006.28
2022-11-04T10:39:39.688Z,99999.88
2022-11-04T10:42:06.050Z,100005.09
2022-11-04T10:44:35.312Z,100012.94
2022-11-04T10:47:14.876Z,100012.94
2022-11-04T10:50:21.979Z,100021.59
2022-11-04T10:52:39.536Z,100015.53
2022-11-04T10:55:41.861Z,100014.22
2022-11-04T10:58:18.036Z,100008.84
2022-11-04T11:00:44.495Z,100014.75
2022-11-04T11:03:34.191Z,100013.91
2022-11-04T11:06:16.409Z,100020.78
2022-11-04T11:08:43.982Z,100024.25
2022-11-04T11:11:11.508Z,100031.59
2022-11-04T11:13:43.809Z,100030.47
2022-11-04T11:16:28.141Z,100032.28
2022-11-04T11:19:17.368Z,100046.03
2022-11-04T11:21:52.022Z,100051.25
2022-11-04T11:24:21.949Z,100057.53
2022-11-04T11:26:54.723Z,100058.28
2022-11-04T11:29:28.016Z,100064.22
2022-11-04T11:31:56.717Z,100079.16
2022-11-04T11:34:37.109Z,100100.66
2022-11-04T11:37:05.018Z,100100.34
2022-11-04T11:39:34.420Z,100091.78
2022-11-04T11:42:11.395Z,100088.09
2022-11-04T11:44:44.743Z,100091.25
2022-11-04T11:47:31.368Z,100086.63
2022-11-04T11:50:12.971Z,100088.22
2022-11-04T11:52:40.899Z,100087.41
2022-11-04T11:55:17.575Z,100090.66
2022-11-04T12:01:09.921Z,100096.31
2022-11-04T12:09:57.272Z,100085.13
2022-11-04T12:12:30.430Z,100079.91
2022-11-04T12:15:26.877Z,100083.03
2022-11-04T12:18:22.329Z,100084.72
2022-11-04T12:20:48.680Z,100087.25
2022-11-04T12:23:21.611Z,100088.28
2022-11-04T12:26:01.592Z,100096.75
2022-11-04T12:28:53.319Z,100089.91
2022-11-04T12:31:47.608Z,100095.56
2022-11-04T12:34:41.760Z,100090.97
2022-11-04T12:37:28.757Z,100091.09
2022-11-04T12:40:20.174Z,100096.06
2022-11-04T12:43:08.114Z,100099.25
2022-11-04T12:45:56.841Z,100094.91
2022-11-04T12:48:48.505Z,100105.22
2022-11-04T12:51:38.315Z,100099.16
2022-11-04T12:54:44.895Z,100109.81
2022-11-04T12:57:24.115Z,100104.00
2022-11-04T13:00:01.809Z,100108.78
2022-11-04T13:02:39.515Z,100109.69
2022-11-04T13:05:21.157Z,100114.63
2022-11-04T13:08:27.909Z,100112.09
2022-11-04T13:11:23.288Z,100117.31
2022-11-04T13:14:01.851Z,100130.44
2022-11-04T13:16:30.324Z,100139.34
2022-11-04T13:18:58.342Z,100137.50
2022-11-04T13:21:29.986Z,100148.41
2022-11-04T13:24:15.537Z,100142.84
2022-11-04T13:26:41.839Z,100139.72
2022-11-04T13:29:15.786Z,100146.03
2022-11-04T13:31:54.340Z,100157.13
2022-11-04T13:34:47.785Z,100150.16
2022-11-04T13:37:25.163Z,100157.16
2022-11-04T13:40:04.208Z,100160.44
2022-11-04T13:42:42.147Z,100166.44
2022-11-04T13:45:14.573Z,100176.22
2022-11-04T13:47:50.451Z,100169.19
2022-11-04T13:50:36.534Z,100176.81
2022-11-04T13:53:05.585Z,100183.06
2022-11-04T13:55:32.432Z,100191.69
2022-11-04T13:58:01.257Z,100195.88
2022-11-04T14:00:32.787Z,100189.91
2022-11-04T14:03:37.754Z,100207.59
2022-11-04T14:06:07.760Z,100206.06
2022-11-04T14:08:34.511Z,100208.91
2022-11-04T14:11:08.415Z,100207.97
2022-11-04T14:13:44.027Z,100214.09
2022-11-04T14:16:24.060Z,100209.91
2022-11-04T14:18:53.033Z,100216.19
2022-11-04T14:21:22.154Z,100217.03
2022-11-04T14:23:58.741Z,100211.25
2022-11-04T14:26:30.626Z,100213.81
2022-11-04T14:29:14.878Z,100221.13
2022-11-04T14:31:48.184Z,100212.41
2022-11-04T14:34:27.263Z,100223.78
2022-11-04T14:36:58.487Z,100215.91
2022-11-04T14:39:31.258Z,100219.22
2022-11-04T14:42:01.410Z,100225.66
2022-11-04T14:44:50.476Z,100229.22
2022-11-04T14:47:21.435Z,100226.63
2022-11-04T14:50:05.532Z,100236.03
2022-11-04T14:52:47.346Z,100236.97
2022-11-04T14:55:17.633Z,100248.53
2022-11-04T14:57:51.252Z,100252.09
2022-11-04T15:00:30.372Z,100258.78
2022-11-04T15:03:45.935Z,100257.00
2022-11-04T15:06:06.642Z,100260.03
2022-11-04T15:08:37.624Z,100265.63
2022-11-04T15:11:14.077Z,100267.72
2022-11-04T15:13:56.716Z,100271.03
2022-11-04T15:16:29.986Z,100271.19
2022-11-04T15:18:58.974Z,100278.16
2022-11-04T15:21:26.206Z,100283.34
2022-11-04T15:23:55.247Z,100284.19
2022-11-04T15:26:30.204Z,100287.78
2022-11-04T15:28:59.871Z,100288.06
2022-11-04T15:31:28.895Z,100289.72
2022-11-04T15:33:58.749Z,100292.44
2022-11-04T15:36:32.826Z,100301.19
2022-11-04T15:39:17.715Z,100303.81
2022-11-04T15:42:03.957Z,100302.13
2022-11-04T15:44:36.522Z,100313.63
2022-11-04T15:47:28.100Z,100325.25
2022-11-04T15:50:03.023Z,100328.16
2022-11-04T15:52:30.073Z,100333.53
2022-11-04T15:54:58.146Z,100338.97
2022-11-04T15:57:27.866Z,100345.66
2022-11-04T16:00:01.643Z,100340.50
2022-11-04T16:02:34.362Z,100344.81
2022-11-04T16:05:09.876Z,100343.34
2022-11-04T16:07:40.982Z,100344.88
2022-11-04T16:10:23.281Z,100352.56
2022-11-04T16:12:56.348Z,100353.47
2022-11-04T16:15:41.593Z,100356.13
2022-11-04T16:18:21.398Z,100363.97
2022-11-04T16:20:48.949Z,100364.22
2022-11-04T16:23:20.149Z,100365.41
2022-11-04T16:25:46.778Z,100370.88
2022-11-04T16:28:20.232Z,100365.66
2022-11-04T16:31:04.511Z,100378.81
2022-11-04T16:33:30.818Z,100378.13
2022-11-04T16:35:57.144Z,100374.66
2022-11-04T16:38:23.527Z,100381.75
2022-11-04T16:40:50.323Z,100377.66
2022-11-04T16:43:22.077Z,100387.41
2022-11-04T16:45:53.579Z,100381.41
2022-11-04T16:48:21.043Z,100389.28
2022-11-04T16:50:49.033Z,100390.41
2022-11-04T16:53:16.552Z,100394.94
2022-11-04T16:55:44.196Z,100405.44
2022-11-04T16:58:17.075Z,100410.81
2022-11-04T17:00:43.373Z,100419.59
2022-11-04T17:03:21.622Z,100422.31
2022-11-04T17:05:50.594Z,100423.34
2022-11-04T17:08:16.952Z,100422.63
2022-11-04T17:10:44.295Z,100422.72
2022-11-04T17:13:11.533Z,100431.44
2022-11-04T17:15:38.352Z,100433.25
2022-11-04T17:18:04.754Z,100438.47
2022-11-04T17:20:31.811Z,100435.13
2022-11-04T17:22:59.236Z,100437.78
2022-11-04T17:25:28.111Z,100436.81
2022-11-04T17:27:54.787Z,100437.66
2022-11-04T17:30:22.511Z,100441.13
2022-11-04T17:32:49.435Z,100448.06
2022-11-04T17:35:16.531Z,100444.63
2022-11-04T17:37:43.465Z,100454.06
2022-11-04T17:40:21.315Z,100459.28
2022-11-04T17:43:11.415Z,100461.75
2022-11-04T17:45:38.192Z,100465.94
2022-11-04T17:48:05.569Z,100476.19
2022-11-04T17:50:32.893Z,100474.38
2022-11-04T17:52:59.253Z,100475.94
2022-11-04T17:55:27.696Z,100481.88
2022-11-04T17:57:54.566Z,100476.84
2022-11-04T18:00:24.149Z,100477.72
2022-11-04T18:02:50.689Z,100475.97
2022-11-04T18:05:17.296Z,100473.28
2022-11-04T18:07:43.650Z,100466.28
2022-11-04T18:10:10.243Z,100476.63
2022-11-04T18:12:36.540Z,100479.44
2022-11-04T18:15:08.890Z,100481.34
2022-11-04T18:17:39.797Z,100479.75
2022-11-04T18:20:13.338Z,100475.44
2022-11-04T18:22:40.955Z,100475.44
2022-11-04T18:25:08.142Z,100481.56
2022-11-04T18:27:34.471Z,100479.13
2022-11-04T18:30:01.003Z,100485.16
2022-11-04T18:32:27.418Z,100487.94
2022-11-04T18:34:53.689Z,100491.59
2022-11-04T18:37:20.345Z,100497.88
2022-11-04T18:39:46.625Z,100499.69
2022-11-04T18:42:13.136Z,100505.91
2022-11-04T18:44:39.456Z,100511.19
2022-11-04T18:47:05.795Z,100507.78
2022-11-04T18:49:32.237Z,100517.34
2022-11-04T18:52:00.123Z,100505.16
2022-11-04T18:54:26.429Z,100515.59
2022-11-04T18:56:52.720Z,100509.56
2022-11-04T18:59:19.093Z,100507.03
2022-11-04T19:01:45.819Z,100513.09
2022-11-04T19:04:13.096Z,100506.19
2022-11-04T19:06:42.941Z,100508.09
2022-11-04T19:09:40.658Z,100517.66
2022-11-04T19:12:16.046Z,100522.03
2022-11-04T19:14:42.350Z,100522.97
2022-11-04T19:17:08.641Z,100531.66
2022-11-04T19:19:34.992Z,100533.41
2022-11-04T19:22:01.365Z,100527.31
2022-11-04T19:24:28.512Z,100534.22
2022-11-04T19:26:54.851Z,100539.53
2022-11-04T19:29:21.117Z,100540.47
2022-11-04T19:31:47.391Z,100541.41
2022-11-04T19:34:13.701Z,100552.72
2022-11-04T19:36:40.042Z,100543.25
2022-11-04T19:39:06.506Z,100554.63
2022-11-04T19:41:51.447Z,100548.63
2022-11-04T19:44:18.990Z,100557.25
2022-11-04T19:46:46.717Z,100559.13
2022-11-04T19:49:13.614Z,100560.06
2022-11-04T19:51:40.784Z,100560.16
2022-11-04T19:54:07.930Z,100573.13
2022-11-04T19:56:36.241Z,100573.16
2022-11-04T19:59:06.252Z,100570.53
2022-11-04T20:01:34.969Z,100575.75
2022-11-04T20:04:03.310Z,100580.06
2022-11-04T20:06:31.862Z,100580.03
2022-11-04T20:09:00.353Z,100583.47
2022-11-04T20:11:26.666Z,100587.78
2022-11-04T20:13:53.027Z,100584.31
2022-11-04T20:16:20.388Z,100590.44
2022-11-04T20:18:51.087Z,100589.59
2022-11-04T20:21:19.475Z,100593.09
2022-11-04T20:23:46.253Z,100593.97
2022-11-04T20:26:20.411Z,100600.81
2022-11-04T20:28:47.664Z,100604.34
2022-11-04T20:31:19.407Z,100611.25
2022-11-04T20:33:47.954Z,100614.72
2022-11-04T20:36:17.036Z,100607.03
2022-11-04T20:38:43.361Z,100617.50
2022-11-04T20:41:15.383Z,100612.28
2022-11-04T20:43:41.667Z,100618.31
2022-11-04T20:46:14.609Z,100625.28
2022-11-04T20:48:41.051Z,100627.00
2022-11-04T20:51:09.929Z,100629.59
2022-11-04T20:53:36.439Z,100635.66
2022-11-04T20:56:08.197Z,100630.44
2022-11-04T20:58:35.711Z,100633.91
2022-11-04T21:01:09.077Z,100636.50
2022-11-04T21:03:35.516Z,100646.06
2022-11-04T21:06:01.903Z,100647.81
2022-11-04T21:08:28.449Z,100660.78
2022-11-04T21:10:56.312Z,100659.97
2022-11-04T21:13:22.818Z,100660.78
2022-11-04T21:15:54.463Z,100666.06
2022-11-04T21:18:22.112Z,100663.47
2022-11-04T21:20:49.248Z,100670.34
2022-11-04T21:23:17.738Z,100674.72
2022-11-04T21:25:53.802Z,100673.84
2022-11-04T21:28:20.215Z,100679.06
2022-11-04T21:30:51.054Z,100675.63
2022-11-04T21:33:17.415Z,100678.22
2022-11-04T21:35:43.867Z,100690.25
2022-11-04T21:38:17.870Z,100688.53
2022-11-04T21:40:45.168Z,100688.50
2022-11-04T21:43:12.047Z,100691.06
2022-11-04T21:45:38.900Z,100696.22
2022-11-04T21:48:05.378Z,100702.28
2022-11-04T21:50:31.937Z,100710.06
2022-11-04T21:52:58.631Z,100710.06
2022-11-04T21:55:25.307Z,100707.47
2022-11-04T21:57:51.761Z,100707.44
2022-11-04T22:00:18.399Z,100715.22
2022-11-04T22:02:47.243Z,100711.75
2022-11-04T22:05:14.276Z,100725.53
2022-11-04T22:07:59.272Z,100722.97
2022-11-04T22:10:27.010Z,100722.94
2022-11-04T22:12:53.683Z,100722.94
2022-11-04T22:15:38.695Z,100724.66
2022-11-04T22:18:06.689Z,100723.84
2022-11-04T22:20:35.113Z,100722.13
2022-11-04T22:23:01.835Z,100722.16
2022-11-04T22:25:29.318Z,100728.22
2022-11-04T22:27:55.613Z,100729.09
2022-11-04T22:30:21.928Z,100729.09
2022-11-04T22:32:48.231Z,100728.25
2022-11-04T22:35:14.670Z,100726.50
2022-11-04T22:37:40.989Z,100736.88
2022-11-04T22:40:08.003Z,100738.63
2022-11-04T22:42:34.271Z,100731.72
2022-11-04T22:45:00.631Z,100741.22
2022-11-04T22:47:27.539Z,100728.28
2022-11-04T22:49:53.815Z,100734.34
2022-11-04T22:52:20.095Z,100735.22
2022-11-04T22:54:46.382Z,100738.69
2022-11-04T22:57:12.663Z,100736.09
2022-11-04T22:59:38.941Z,100733.50
2022-11-04T23:02:05.349Z,100739.56
2022-11-04T23:04:31.717Z,100739.56
2022-11-04T23:06:57.994Z,100728.31
2022-11-04T23:09:24.320Z,100731.78
2022-11-04T23:12:09.071Z,100738.72
2022-11-04T23:14:41.496Z,100732.66
2022-11-04T23:17:41.065Z,100736.09
2022-11-04T23:20:35.254Z,100736.94
2022-11-04T23:23:20.331Z,100737.81
2022-11-04T23:25:46.676Z,100744.78
2022-11-04T23:28:31.613Z,100743.03
2022-11-04T23:30:59.418Z,100742.19
2022-11-04T23:33:45.677Z,100743.91
2022-11-04T23:36:30.510Z,100742.19
2022-11-04T23:38:56.975Z,100756.84
2022-11-04T23:41:42.054Z,100748.22
2022-11-04T23:44:28.366Z,100746.47
2022-11-04T23:47:13.379Z,100753.41
2022-11-04T23:50:02.776Z,100762.00
2022-11-04T23:52:48.301Z,100767.19
2022-11-04T23:55:53.219Z,100765.47
2022-11-04T23:58:38.135Z,100768.94
